createdAt,value
2023-01-07T00:01:29.641Z,2.30
2023-01-07T00:05:13.682Z,2.30
2023-01-07T00:08:58.091Z,2.63
2023-01-07T00:12:40.806Z,2.50
2023-01-07T00:16:25.326Z,2.30
2023-01-07T00:20:08.577Z,2.47
2023-01-07T00:23:55.290Z,2.83
2023-01-07T00:27:38.025Z,14.10
2023-01-07T00:31:23.427Z,3.17
2023-01-07T00:35:21.458Z,2.30
2023-01-07T00:39:07.024Z,2.43
2023-01-07T00:42:58.143Z,2.40
2023-01-07T00:46:40.890Z,2.50
2023-01-07T00:50:25.662Z,2.10
2023-01-07T00:54:09.741Z,2.40
2023-01-07T00:57:52.871Z,5.63
2023-01-07T01:01:35.791Z,3.70
2023-01-07T01:05:19.310Z,2.80
2023-01-07T01:09:01.987Z,2.50
2023-01-07T01:12:49.840Z,2.80
2023-01-07T01:16:35.101Z,2.30
2023-01-07T01:20:17.926Z,2.83
2023-01-07T01:24:00.628Z,2.70
2023-01-07T01:27:44.088Z,2.70
2023-01-07T01:31:28.330Z,3.80
2023-01-07T01:35:11.085Z,3.73
2023-01-07T01:38:53.966Z,3.70
2023-01-07T01:42:36.627Z,4.00
2023-01-07T01:46:29.573Z,4.67
2023-01-07T01:50:18.583Z,5.83
2023-01-07T01:54:04.542Z,5.10
2023-01-07T01:57:49.980Z,5.33
2023-01-07T02:01:35.056Z,4.07
2023-01-07T02:05:18.280Z,4.60
2023-01-07T02:09:01.082Z,4.40
2023-01-07T02:13:12.323Z,4.03
2023-01-07T02:17:13.398Z,3.77
2023-01-07T02:21:03.698Z,3.90
2023-01-07T02:25:00.769Z,3.50
2023-01-07T02:29:03.975Z,3.80
2023-01-07T02:33:05.852Z,3.87
2023-01-07T02:36:52.367Z,3.37
2023-01-07T02:40:40.523Z,3.10
2023-01-07T02:44:28.646Z,3.00
2023-01-07T02:48:17.060Z,3.50
2023-01-07T02:52:16.077Z,3.20
2023-01-07T02:56:10.342Z,2.93
2023-01-07T03:00:14.032Z,2.90
2023-01-07T03:04:16.154Z,3.17
2023-01-07T03:08:10.924Z,3.20
2023-01-07T03:11:59.129Z,3.13
2023-01-07T03:15:45.246Z,2.60
2023-01-07T03:19:31.588Z,2.77
2023-01-07T03:23:16.289Z,2.90
2023-01-07T03:27:00.347Z,2.70
2023-01-07T03:30:43.297Z,3.00
2023-01-07T03:34:29.827Z,3.07
2023-01-07T03:38:14.452Z,2.73
2023-01-07T03:42:14.817Z,2.53
2023-01-07T03:45:59.097Z,2.93
2023-01-07T03:49:42.095Z,2.37
2023-01-07T03:53:26.119Z,2.50
2023-01-07T03:57:08.973Z,2.77
2023-01-07T04:00:51.744Z,2.73
2023-01-07T04:04:38.521Z,2.63
2023-01-07T04:08:21.265Z,2.70
2023-01-07T04:12:05.380Z,2.67
2023-01-07T04:15:48.058Z,2.93
2023-01-07T04:19:30.761Z,2.80
2023-01-07T04:23:13.416Z,2.70
2023-01-07T04:26:58.497Z,2.80
2023-01-07T04:30:42.670Z,2.20
2023-01-07T04:34:25.620Z,2.10
2023-01-07T04:38:08.422Z,2.20
2023-01-07T04:41:51.192Z,2.33
2023-01-07T04:45:36.300Z,2.00
2023-01-07T04:49:20.365Z,2.20
2023-01-07T04:53:03.000Z,1.93
2023-01-07T04:56:46.627Z,2.87
2023-01-07T05:00:29.249Z,1.87
2023-01-07T05:04:12.003Z,2.10
2023-01-07T05:07:56.103Z,2.00
2023-01-07T05:11:38.792Z,2.50
2023-01-07T05:15:21.528Z,1.97
2023-01-07T05:19:04.539Z,2.00
2023-01-07T05:22:47.720Z,1.77
2023-01-07T05:26:32.622Z,2.20
2023-01-07T05:30:18.091Z,2.30
2023-01-07T05:34:00.790Z,1.93
2023-01-07T05:37:43.570Z,2.20
2023-01-07T05:41:26.321Z,2.43
2023-01-07T05:45:11.377Z,1.90
2023-01-07T05:48:54.636Z,2.17
2023-01-07T05:52:37.392Z,2.30
2023-01-07T05:56:20.115Z,2.13
2023-01-07T06:00:03.112Z,2.20
2023-01-07T06:03:47.177Z,2.30
2023-01-07T06:07:29.893Z,2.13
2023-01-07T06:11:12.714Z,2.40
2023-01-07T06:14:55.377Z,2.17
2023-01-07T06:18:38.197Z,2.40
2023-01-07T06:22:24.090Z,2.30
2023-01-07T06:26:06.744Z,2.50
2023-01-07T06:29:49.583Z,2.40
2023-01-07T06:33:33.608Z,2.40
2023-01-07T06:37:17.969Z,2.03
2023-01-07T06:41:02.508Z,2.47
2023-01-07T06:44:45.212Z,2.60
2023-01-07T06:48:30.511Z,2.20
2023-01-07T06:52:13.272Z,2.50
2023-01-07T06:55:55.958Z,2.30
2023-01-07T06:59:39.998Z,2.13
2023-01-07T07:03:22.678Z,2.50
2023-01-07T07:07:05.388Z,2.50
2023-01-07T07:10:48.091Z,2.30
2023-01-07T07:14:30.774Z,2.33
2023-01-07T07:18:14.803Z,2.40
2023-01-07T07:21:57.653Z,2.70
2023-01-07T07:25:40.705Z,2.50
2023-01-07T07:29:23.417Z,2.80
2023-01-07T07:33:06.518Z,5.93
2023-01-07T07:36:50.614Z,5.67
2023-01-07T07:40:33.268Z,4.67
2023-01-07T07:44:16.160Z,4.20
2023-01-07T07:47:58.868Z,3.00
2023-01-07T07:51:41.528Z,2.90
2023-01-07T07:55:26.589Z,3.23
2023-01-07T07:59:09.720Z,2.90
2023-01-07T08:02:52.432Z,3.30
2023-01-07T08:06:35.331Z,3.00
2023-01-07T08:10:18.239Z,3.57
2023-01-07T08:14:02.450Z,2.93
2023-01-07T08:17:45.395Z,2.60
2023-01-07T08:21:28.056Z,2.80
2023-01-07T08:25:13.247Z,3.33
2023-01-07T08:28:55.955Z,2.70
2023-01-07T08:32:42.744Z,2.70
2023-01-07T08:36:25.462Z,2.97
2023-01-07T08:40:09.083Z,3.23
2023-01-07T08:43:52.173Z,3.00
2023-01-07T08:47:37.058Z,3.27
2023-01-07T08:51:21.132Z,3.13
2023-01-07T08:55:03.934Z,3.30
2023-01-07T08:58:46.616Z,3.20
2023-01-07T09:02:29.460Z,3.10
2023-01-07T09:06:12.889Z,2.70
2023-01-07T09:09:56.861Z,2.87
2023-01-07T09:13:39.616Z,2.90
2023-01-07T09:17:24.154Z,2.80
2023-01-07T09:21:07.392Z,2.63
2023-01-07T09:24:50.071Z,2.97
2023-01-07T09:28:34.430Z,2.73
2023-01-07T09:32:17.098Z,2.63
2023-01-07T09:35:59.845Z,2.90
2023-01-07T09:39:42.708Z,3.03
2023-01-07T09:43:59.692Z,2.90
2023-01-07T09:47:34.823Z,2.87
2023-01-07T09:51:23.655Z,2.97
2023-01-07T09:55:09.992Z,3.03
2023-01-07T09:58:52.821Z,3.30
2023-01-07T10:02:45.033Z,2.80
2023-01-07T10:06:43.024Z,2.97
2023-01-07T10:10:32.940Z,2.90
2023-01-07T10:14:43.799Z,2.60
2023-01-07T10:18:37.210Z,3.00
2023-01-07T10:22:25.214Z,2.80
2023-01-07T10:26:16.980Z,3.10
2023-01-07T10:30:03.218Z,2.90
2023-01-07T10:33:48.674Z,3.10
2023-01-07T10:37:33.640Z,3.00
2023-01-07T10:41:22.664Z,2.70
2023-01-07T10:45:34.075Z,3.40
2023-01-07T10:49:33.216Z,3.60
2023-01-07T10:53:29.717Z,2.73
2023-01-07T10:57:16.215Z,2.53
2023-01-07T11:00:59.273Z,2.80
2023-01-07T11:04:43.400Z,2.60
2023-01-07T11:08:31.220Z,2.57
2023-01-07T11:12:25.290Z,8.57
2023-01-07T11:16:11.795Z,2.80
2023-01-07T11:19:56.455Z,11.60
2023-01-07T11:23:42.796Z,4.50
2023-01-07T11:27:31.235Z,4.07
2023-01-07T11:31:13.895Z,2.60
2023-01-07T11:35:00.853Z,2.70
2023-01-07T11:38:43.813Z,2.57
2023-01-07T11:42:41.723Z,2.73
2023-01-07T11:46:26.909Z,2.03
2023-01-07T11:50:22.333Z,2.90
2023-01-07T11:54:05.195Z,2.17
2023-01-07T11:58:03.490Z,2.20
2023-01-07T12:01:59.270Z,2.40
2023-01-07T12:05:45.353Z,2.50
2023-01-07T12:09:34.480Z,2.40
2023-01-07T12:13:21.139Z,2.30
2023-01-07T12:17:12.059Z,1.73
2023-01-07T12:21:16.431Z,4.37
2023-01-07T12:25:20.043Z,2.10
2023-01-07T12:29:11.383Z,2.50
2023-01-07T12:33:02.840Z,1.80
2023-01-07T12:36:50.602Z,2.50
2023-01-07T12:40:36.532Z,1.90
2023-01-07T12:44:21.603Z,1.60
2023-01-07T12:48:07.438Z,2.20
2023-01-07T12:51:56.605Z,1.87
2023-01-07T12:55:46.171Z,1.50
2023-01-07T12:59:46.064Z,1.70
2023-01-07T13:03:39.158Z,7.20
2023-01-07T13:07:26.529Z,9.53
2023-01-07T13:11:20.583Z,1.97
2023-01-07T13:15:05.097Z,1.60
2023-01-07T13:18:47.782Z,3.43
2023-01-07T13:22:35.205Z,1.80
2023-01-07T13:26:29.527Z,1.50
2023-01-07T13:30:24.170Z,1.50
2023-01-07T13:34:20.635Z,1.60
2023-01-07T13:38:15.427Z,2.00
2023-01-07T13:42:07.977Z,1.90
2023-01-07T13:45:56.532Z,2.10
2023-01-07T13:49:39.583Z,2.00
2023-01-07T13:53:50.122Z,1.60
2023-01-07T13:57:46.001Z,1.50
2023-01-07T14:01:29.720Z,2.07
2023-01-07T14:05:25.543Z,1.67
2023-01-07T14:09:32.365Z,1.77
2023-01-07T14:13:27.263Z,1.63
2023-01-07T14:17:16.122Z,1.73
2023-01-07T14:21:08.095Z,1.97
2023-01-07T14:25:14.275Z,6.00
2023-01-07T14:29:10.690Z,2.20
2023-01-07T14:32:58.229Z,1.50
2023-01-07T14:37:11.631Z,1.83
2023-01-07T14:41:09.535Z,5.83
2023-01-07T14:44:52.537Z,2.53
2023-01-07T14:48:37.039Z,1.40
2023-01-07T14:52:44.653Z,1.47
2023-01-07T14:56:36.348Z,1.40
2023-01-07T15:00:38.819Z,1.50
2023-01-07T15:04:52.492Z,3.50
2023-01-07T15:09:02.480Z,2.70
2023-01-07T15:13:05.781Z,2.10
2023-01-07T15:16:50.707Z,2.07
2023-01-07T15:20:42.745Z,1.70
2023-01-07T15:24:32.472Z,2.03
2023-01-07T15:28:22.372Z,4.97
2023-01-07T15:32:09.883Z,11.83
2023-01-07T15:35:52.824Z,3.83
2023-01-07T15:39:40.266Z,3.10
2023-01-07T15:43:28.528Z,2.20
2023-01-07T15:47:36.541Z,2.30
2023-01-07T15:51:19.765Z,2.50
2023-01-07T15:55:15.019Z,3.20
2023-01-07T15:58:59.128Z,2.67
2023-01-07T16:02:43.509Z,2.97
2023-01-07T16:06:33.544Z,3.37
2023-01-07T16:10:20.700Z,3.63
2023-01-07T16:14:12.504Z,3.77
2023-01-07T16:17:56.786Z,3.73
2023-01-07T16:21:42.446Z,3.80
2023-01-07T16:25:32.470Z,3.60
2023-01-07T16:29:18.548Z,3.80
2023-01-07T16:33:01.496Z,4.00
2023-01-07T16:36:45.191Z,5.20
2023-01-07T16:40:34.448Z,7.37
2023-01-07T16:44:58.693Z,7.70
2023-01-07T16:48:41.367Z,5.93
2023-01-07T16:52:27.739Z,6.93
2023-01-07T16:56:15.205Z,13.90
2023-01-07T17:00:01.663Z,8.10
2023-01-07T17:03:48.720Z,8.03
2023-01-07T17:07:31.569Z,7.17
2023-01-07T17:11:21.441Z,6.07
2023-01-07T17:15:33.474Z,6.33
2023-01-07T17:19:24.412Z,5.50
2023-01-07T17:23:32.312Z,6.33
2023-01-07T17:27:22.609Z,8.17
2023-01-07T17:31:07.346Z,12.67
2023-01-07T17:34:50.072Z,7.30
2023-01-07T17:38:32.965Z,5.33
2023-01-07T17:42:39.480Z,5.03
2023-01-07T17:46:24.166Z,8.13
2023-01-07T17:50:07.648Z,9.07
2023-01-07T17:53:51.862Z,7.00
2023-01-07T17:57:34.544Z,5.97
2023-01-07T18:01:20.053Z,6.00
2023-01-07T18:05:04.508Z,5.70
2023-01-07T18:08:47.666Z,5.97
2023-01-07T18:12:34.611Z,6.63
2023-01-07T18:16:17.435Z,8.17
2023-01-07T18:20:00.162Z,5.83
2023-01-07T18:23:45.854Z,6.13
2023-01-07T18:27:28.549Z,6.43
2023-01-07T18:31:11.471Z,7.13
2023-01-07T18:34:54.223Z,7.90
2023-01-07T18:38:36.912Z,7.73
2023-01-07T18:42:21.011Z,8.97
2023-01-07T18:46:08.355Z,8.27
2023-01-07T18:49:51.119Z,8.07
2023-01-07T18:53:33.838Z,7.73
2023-01-07T18:57:16.582Z,7.60
2023-01-07T19:01:04.754Z,8.27
2023-01-07T19:04:48.031Z,7.70
2023-01-07T19:08:31.343Z,7.90
2023-01-07T19:12:14.552Z,8.27
2023-01-07T19:15:57.210Z,8.37
2023-01-07T19:19:48.468Z,7.37
2023-01-07T19:23:31.684Z,7.47
2023-01-07T19:27:14.389Z,8.17
2023-01-07T19:30:57.086Z,7.00
2023-01-07T19:34:41.154Z,9.67
2023-01-07T19:38:23.912Z,10.70
2023-01-07T19:42:07.044Z,10.53
2023-01-07T19:45:56.192Z,10.20
2023-01-07T19:49:38.993Z,11.30
2023-01-07T19:53:23.448Z,10.70
2023-01-07T19:57:06.169Z,10.37
2023-01-07T20:00:48.883Z,10.87
2023-01-07T20:04:31.739Z,9.03
2023-01-07T20:08:14.414Z,7.83
2023-01-07T20:11:58.467Z,8.87
2023-01-07T20:15:41.121Z,7.90
2023-01-07T20:19:24.268Z,6.80
2023-01-07T20:23:06.909Z,5.70
2023-01-07T20:26:49.624Z,6.87
2023-01-07T20:30:33.922Z,6.10
2023-01-07T20:34:16.638Z,6.50
2023-01-07T20:37:59.377Z,6.07
2023-01-07T20:41:45.144Z,6.30
2023-01-07T20:45:27.816Z,6.50
2023-01-07T20:49:13.331Z,6.20
2023-01-07T20:52:56.001Z,5.60
2023-01-07T20:56:38.770Z,5.30
2023-01-07T21:00:21.465Z,5.17
2023-01-07T21:04:04.255Z,4.70
2023-01-07T21:07:48.334Z,5.23
2023-01-07T21:11:31.030Z,5.20
2023-01-07T21:15:15.755Z,5.80
2023-01-07T21:18:58.526Z,6.40
2023-01-07T21:22:41.558Z,6.70
2023-01-07T21:26:26.173Z,5.80
2023-01-07T21:30:14.278Z,5.23
2023-01-07T21:33:58.182Z,4.90
2023-01-07T21:37:40.870Z,5.30
2023-01-07T21:41:25.733Z,4.97
2023-01-07T21:45:09.355Z,5.13
2023-01-07T21:48:52.940Z,5.17
2023-01-07T21:52:35.746Z,5.43
2023-01-07T21:56:19.035Z,4.33
2023-01-07T22:00:03.305Z,3.90
2023-01-07T22:03:48.249Z,4.37
2023-01-07T22:07:30.986Z,4.30
2023-01-07T22:11:14.336Z,4.30
2023-01-07T22:14:57.111Z,4.73
2023-01-07T22:18:41.228Z,4.73
2023-01-07T22:22:23.938Z,4.83
2023-01-07T22:26:07.998Z,6.37
2023-01-07T22:29:50.692Z,5.30
2023-01-07T22:33:36.440Z,4.40
2023-01-07T22:37:23.894Z,4.57
2023-01-07T22:41:10.367Z,4.10
2023-01-07T22:44:58.936Z,4.63
2023-01-07T22:48:41.696Z,4.97
2023-01-07T22:52:25.714Z,5.57
2023-01-07T22:56:08.853Z,5.97
2023-01-07T22:59:51.586Z,6.60
2023-01-07T23:03:34.638Z,5.93
2023-01-07T23:07:17.419Z,6.83
2023-01-07T23:11:01.464Z,7.10
2023-01-07T23:14:44.191Z,8.03
2023-01-07T23:18:26.871Z,6.40
2023-01-07T23:22:09.537Z,5.60
2023-01-07T23:25:52.646Z,5.57
2023-01-07T23:29:36.849Z,5.77
2023-01-07T23:33:19.592Z,5.20
2023-01-07T23:37:02.324Z,6.07
2023-01-07T23:40:45.970Z,6.23
2023-01-07T23:44:28.655Z,5.20
2023-01-07T23:48:12.711Z,4.10
2023-01-07T23:51:55.373Z,3.73
2023-01-07T23:55:39.192Z,5.20
2023-01-07T23:59:22.007Z,4.40
